Time;durP1;ratioP1;P1;durP2;ratioP2;P2;SDS_P1;SDS_P2;PMS_P1;PMS_P2;Temp;Humidity;BMP_temperature;BMP_pressure;BME280_temperature;BME280_humidity;BME280_pressure;Samples;Min_cycle;Max_cycle;Signal;HPM_P1;HPM_P2
2022/04/23 00:01:34;;;;;;;10.03;5.87;;;;;;;9.81;nan;-24090.94;5015745;28;20294;-75
2022/04/23 00:04:00;;;;;;;7.30;5.57;;;;;;;9.73;nan;-24088.81;5015550;28;20655;-74
2022/04/23 00:06:25;;;;;;;9.03;5.60;;;;;;;9.56;nan;-24084.16;5015605;28;20180;-76
2022/04/23 00:08:51;;;;;;;7.57;5.87;;;;;;;9.61;nan;-24085.44;5015624;28;20180;-76
2022/04/23 00:11:16;;;;;;;9.53;5.70;;;;;;;9.57;nan;-24084.44;5015705;28;20234;-74
2022/04/23 00:13:42;;;;;;;8.90;5.50;;;;;;;9.71;nan;-24088.41;5015661;28;20255;-76
2022/04/23 00:16:07;;;;;;;9.63;6.40;;;;;;;9.79;nan;-24090.38;5015491;28;20176;-76
2022/04/23 00:18:33;;;;;;;9.03;6.17;;;;;;;9.47;nan;-24081.63;5014299;28;20561;-74
2022/04/23 00:20:59;;;;;;;10.43;6.07;;;;;;;9.85;nan;-24092.22;5015573;28;20249;-76
2022/04/23 00:23:25;;;;;;;9.57;6.10;;;;;;;9.45;nan;-24081.06;5015058;28;20179;-77
2022/04/23 00:25:52;;;;;;;10.57;7.23;;;;;;;9.86;nan;-24092.34;5015444;28;20171;-76
2022/04/23 00:28:18;;;;;;;13.23;8.47;;;;;;;9.53;nan;-24083.31;5015313;28;20208;-76
2022/04/23 00:30:47;;;;;;;17.73;9.97;;;;;;;9.73;nan;-24088.81;5015426;28;20186;-77
2022/04/23 00:33:12;;;;;;;14.80;8.00;;;;;;;9.59;nan;-24085.00;5015254;28;20241;-74
2022/04/23 00:35:38;;;;;;;16.93;10.87;;;;;;;9.57;nan;-24084.44;5015040;28;20672;-74
2022/04/23 00:38:05;;;;;;;12.90;8.43;;;;;;;9.43;nan;-24080.50;5014731;28;20631;-74
2022/04/23 00:40:31;;;;;;;12.20;7.53;;;;;;;9.25;nan;-24075.41;5015420;28;20568;-77
2022/04/23 00:42:58;;;;;;;10.70;6.63;;;;;;;9.51;nan;-24082.59;5015548;28;20628;-76
2022/04/23 00:45:25;;;;;;;13.57;8.00;;;;;;;9.49;nan;-24082.19;5015098;28;20177;-77
2022/04/23 00:47:52;;;;;;;12.73;8.40;;;;;;;9.54;nan;-24083.59;5015114;28;20643;-75
2022/04/23 00:50:21;;;;;;;13.60;9.20;;;;;;;9.20;nan;-24074.00;5015029;28;20627;-74
2022/04/23 00:52:48;;;;;;;13.73;9.07;;;;;;;9.31;nan;-24077.09;5014695;28;21039;-77
2022/04/23 00:55:14;;;;;;;14.70;8.87;;;;;;;9.39;nan;-24079.22;5013863;28;20187;-75
2022/04/23 00:57:40;;;;;;;10.50;7.20;;;;;;;8.98;nan;-24067.91;5014915;28;20558;-73
2022/04/23 01:00:09;;;;;;;12.30;6.87;;;;;;;9.01;nan;-24068.75;5014661;28;20577;-74
2022/04/23 01:02:36;;;;;;;11.27;7.27;;;;;;;9.26;nan;-24075.69;5014531;28;20179;-75
2022/04/23 01:05:02;;;;;;;12.73;7.83;;;;;;;9.38;nan;-24078.94;5014526;28;20187;-76
2022/04/23 01:07:28;;;;;;;11.57;7.07;;;;;;;9.02;nan;-24069.03;5015180;28;20215;-75
2022/04/23 01:09:53;;;;;;;20.30;7.57;;;;;;;9.40;nan;-24079.63;5014707;28;20212;-74
2022/04/23 01:12:19;;;;;;;11.50;7.10;;;;;;;9.08;nan;-24070.72;5014753;28;20215;-75
2022/04/23 01:15:01;;;;;;;10.27;6.77;;;;;;;9.05;nan;-24069.75;5014409;28;20640;-75
2022/04/23 01:17:27;;;;;;;14.97;7.30;;;;;;;8.97;nan;-24067.63;5013796;28;20615;-74
2022/04/23 01:19:53;;;;;;;10.30;7.23;;;;;;;9.18;nan;-24073.41;5012938;28;20286;-75
2022/04/23 01:22:18;;;;;;;11.53;7.37;;;;;;;9.24;nan;-24075.25;5014515;28;20227;-74
2022/04/23 01:24:43;;;;;;;10.03;6.80;;;;;;;8.88;nan;-24065.22;5014499;28;20655;-75
2022/04/23 01:27:13;;;;;;;11.77;7.33;;;;;;;8.52;nan;-24055.03;5014560;28;20192;-77
2022/04/23 01:29:38;;;;;;;12.47;7.13;;;;;;;8.10;nan;-24043.13;5014319;28;20176;-76
2022/04/23 01:32:05;;;;;;;13.30;7.63;;;;;;;8.61;nan;-24057.56;5013797;28;20172;-76
2022/04/23 01:34:30;;;;;;;14.50;7.90;;;;;;;8.93;nan;-24066.50;5014765;28;20180;-76
2022/04/23 01:36:56;;;;;;;13.83;7.83;;;;;;;8.80;nan;-24062.81;5014178;28;20565;-74
2022/04/23 01:39:21;;;;;;;15.97;8.23;;;;;;;8.46;nan;-24053.34;5014105;28;20184;-76
2022/04/23 01:41:47;;;;;;;11.97;7.90;;;;;;;8.28;nan;-24048.38;5013212;28;20591;-74
2022/04/23 01:44:13;;;;;;;14.20;8.87;;;;;;;8.45;nan;-24052.91;5014505;28;20187;-75
2022/04/23 01:46:39;;;;;;;18.03;8.73;;;;;;;8.30;nan;-24048.81;5012230;28;20196;-76
2022/04/23 01:49:04;;;;;;;18.60;8.87;;;;;;;8.74;nan;-24061.25;5013842;28;20318;-74
2022/04/23 01:51:29;;;;;;;15.00;9.23;;;;;;;8.64;nan;-24058.28;5013864;28;20188;-76
2022/04/23 01:53:55;;;;;;;14.77;8.87;;;;;;;8.49;nan;-24054.19;5013825;28;20224;-75
2022/04/23 01:56:20;;;;;;;13.80;8.83;;;;;;;8.61;nan;-24057.56;5013830;28;20575;-75
2022/04/23 01:58:46;;;;;;;13.53;8.60;;;;;;;8.46;nan;-24053.34;5013869;28;20211;-75
2022/04/23 02:01:11;;;;;;;13.97;8.93;;;;;;;8.24;nan;-24047.25;5013625;28;20199;-74
2022/04/23 02:03:36;;;;;;;12.23;8.37;;;;;;;8.07;nan;-24042.28;5014094;28;20684;-76
2022/04/23 02:06:02;;;;;;;12.50;8.50;;;;;;;7.67;nan;-24031.25;5012704;28;20191;-76
2022/04/23 02:08:27;;;;;;;14.67;8.57;;;;;;;7.82;nan;-24035.47;5012431;28;20345;-75
2022/04/23 02:10:53;;;;;;;12.93;8.73;;;;;;;7.83;nan;-24035.78;5012853;28;20226;-77
2022/04/23 02:13:18;;;;;;;17.30;9.47;;;;;;;8.25;nan;-24047.53;5013886;28;20175;-75
2022/04/23 02:15:44;;;;;;;15.27;9.33;;;;;;;8.06;nan;-24042.00;5013474;28;20230;-74
2022/04/23 02:18:10;;;;;;;15.20;9.60;;;;;;;8.22;nan;-24046.53;5013233;28;20685;-74
2022/04/23 02:20:36;;;;;;;16.30;10.50;;;;;;;7.85;nan;-24036.19;5013719;28;20203;-75
2022/04/23 02:23:02;;;;;;;18.40;10.23;;;;;;;8.27;nan;-24048.09;5013297;28;20171;-76
2022/04/23 02:25:28;;;;;;;17.03;9.40;;;;;;;8.23;nan;-24046.81;5013211;28;20322;-76
2022/04/23 02:27:53;;;;;;;17.47;10.47;;;;;;;8.05;nan;-24041.84;5013324;28;20668;-76
2022/04/23 02:30:21;;;;;;;13.57;9.67;;;;;;;8.20;nan;-24045.97;5019262;28;20180;-74
2022/04/23 02:32:47;;;;;;;15.00;10.00;;;;;;;8.22;nan;-24046.69;5021359;28;20665;-74
2022/04/23 02:35:17;;;;;;;17.87;9.43;;;;;;;7.95;nan;-24039.03;5020806;28;20214;-74
2022/04/23 02:37:44;;;;;;;17.20;10.27;;;;;;;7.81;nan;-24035.22;5022507;28;20206;-74
2022/04/23 02:40:10;;;;;;;16.07;9.97;;;;;;;8.32;nan;-24049.50;5026121;28;20176;-74
2022/04/23 02:42:37;;;;;;;14.67;9.67;;;;;;;8.27;nan;-24047.94;5025541;28;20202;-75
2022/04/23 02:45:06;;;;;;;16.83;9.50;;;;;;;8.19;nan;-24045.69;5022798;28;20180;-74
2022/04/23 02:47:46;;;;;;;18.03;10.57;;;;;;;7.76;nan;-24033.66;5013391;28;20168;-76
2022/04/23 02:50:13;;;;;;;15.50;10.17;;;;;;;8.20;nan;-24045.97;5011399;28;20663;-76
2022/04/23 02:52:43;;;;;;;18.83;10.80;;;;;;;8.05;nan;-24041.72;5012583;28;20172;-74
2022/04/23 02:55:11;;;;;;;18.03;11.00;;;;;;;7.72;nan;-24032.66;5012870;28;20280;-74
2022/04/23 02:57:37;;;;;;;20.23;11.80;;;;;;;7.94;nan;-24038.88;5012489;28;20175;-76
2022/04/23 03:00:04;;;;;;;20.80;11.53;;;;;;;8.13;nan;-24044.13;5011474;28;20195;-75
2022/04/23 03:02:30;;;;;;;23.87;14.43;;;;;;;8.13;nan;-24044.00;5012561;28;20180;-75
2022/04/23 03:04:55;;;;;;;21.43;14.53;;;;;;;8.06;nan;-24042.00;5012615;28;20186;-74
2022/04/23 03:07:21;;;;;;;18.13;12.93;;;;;;;7.93;nan;-24038.59;5012366;28;20187;-74
2022/04/23 03:09:46;;;;;;;23.13;13.10;;;;;;;7.86;nan;-24036.63;5012621;28;20179;-75
2022/04/23 03:12:12;;;;;;;18.27;11.40;;;;;;;8.00;nan;-24040.59;5012362;28;20195;-76
2022/04/23 03:14:37;;;;;;;15.87;10.27;;;;;;;7.56;nan;-24028.13;5012680;28;20176;-75
2022/04/23 03:17:03;;;;;;;17.80;10.43;;;;;;;7.86;nan;-24036.63;5012466;28;20635;-74
2022/04/23 03:19:28;;;;;;;17.13;10.30;;;;;;;7.90;nan;-24037.75;5012567;28;20190;-77
2022/04/23 03:21:54;;;;;;;13.73;10.17;;;;;;;8.19;nan;-24045.69;5011570;28;20311;-74
2022/04/23 03:24:20;;;;;;;16.70;11.07;;;;;;;8.10;nan;-24043.13;5012435;28;20176;-74
2022/04/23 03:26:46;;;;;;;15.27;10.00;;;;;;;8.15;nan;-24044.69;5010728;28;20180;-76
2022/04/23 03:29:11;;;;;;;15.90;10.33;;;;;;;8.08;nan;-24042.72;5027521;28;20184;-76
2022/04/23 03:31:37;;;;;;;14.43;9.17;;;;;;;7.84;nan;-24036.06;5012831;28;20183;-76
2022/04/23 03:34:03;;;;;;;14.77;10.03;;;;;;;8.14;nan;-24044.28;5012649;28;20259;-74
2022/04/23 03:36:28;;;;;;;13.73;8.67;;;;;;;8.16;nan;-24044.84;5012421;28;20592;-74
2022/04/23 03:38:53;;;;;;;15.87;9.47;;;;;;;7.87;nan;-24036.91;5012156;28;20180;-76
2022/04/23 03:41:19;;;;;;;14.67;9.23;;;;;;;8.20;nan;-24046.09;5012095;28;20204;-75
2022/04/23 03:43:44;;;;;;;15.13;9.87;;;;;;;8.23;nan;-24046.81;5012558;28;20670;-76
2022/04/23 03:46:09;;;;;;;16.83;10.27;;;;;;;8.57;nan;-24056.31;5012234;28;20179;-74
2022/04/23 03:48:35;;;;;;;20.30;9.87;;;;;;;8.57;nan;-24056.44;5012232;28;20258;-76
2022/04/23 03:51:00;;;;;;;18.73;10.03;;;;;;;9.35;nan;-24078.09;5011968;28;20648;-75
2022/04/23 03:53:26;;;;;;;13.87;9.37;;;;;;;9.40;nan;-24079.63;5012240;28;20242;-74
2022/04/23 03:55:51;;;;;;;15.67;8.70;;;;;;;10.12;nan;-24099.84;5026895;28;20183;-75
2022/04/23 03:58:18;;;;;;;12.90;8.63;;;;;;;10.45;nan;-24108.88;5011924;28;20180;-75
2022/04/23 04:00:43;;;;;;;14.63;9.07;;;;;;;11.41;nan;-24135.81;5011959;28;20200;-76
2022/04/23 04:03:08;;;;;;;13.60;9.85;;;;;;;12.03;nan;-24152.84;5010768;28;20180;-73
2022/04/23 04:05:34;;;;;;;12.27;8.73;;;;;;;12.07;nan;-24154.00;5011997;28;20204;-75
2022/04/23 04:07:59;;;;;;;12.80;9.20;;;;;;;12.70;nan;-24171.56;5011701;28;20679;-74
2022/04/23 04:10:24;;;;;;;10.05;7.82;;;;;;;13.27;nan;-24187.47;5011744;28;20267;-75
2022/04/23 04:12:52;;;;;;;11.23;7.85;;;;;;;13.81;nan;-24202.34;5011702;28;21047;-75
2022/04/23 04:15:20;;;;;;;12.80;7.35;;;;;;;14.78;nan;-24229.41;5011989;28;20548;-74
2022/04/23 04:17:51;;;;;;;11.95;6.57;;;;;;;14.98;nan;-24235.03;5011805;28;20172;-76
2022/04/23 04:20:16;;;;;;;11.93;6.00;;;;;;;15.66;nan;-24253.78;5010420;28;20176;-76
2022/04/23 04:22:44;;;;;;;10.77;5.80;;;;;;;16.00;nan;-24263.16;5011982;28;20179;-76
2022/04/23 04:25:11;;;;;;;8.60;6.30;;;;;;;16.76;nan;-24284.28;5011635;28;20188;-74
2022/04/23 04:27:37;;;;;;;9.00;6.03;;;;;;;17.24;nan;-24297.41;5011799;28;20172;-76
2022/04/23 04:30:05;;;;;;;10.25;6.28;;;;;;;17.31;nan;-24299.22;5011724;28;20692;-75
2022/04/23 04:32:31;;;;;;;10.57;6.32;;;;;;;17.69;nan;-24309.69;5012672;28;20183;-75
2022/04/23 04:34:57;;;;;;;11.07;6.20;;;;;;;17.84;nan;-24314.00;5014297;28;20183;-77
2022/04/23 04:37:22;;;;;;;10.23;6.07;;;;;;;17.66;nan;-24309.13;5014996;28;20184;-77
2022/04/23 04:39:48;;;;;;;8.95;5.90;;;;;;;17.56;nan;-24306.19;5014813;28;20168;-75
2022/04/23 04:42:14;;;;;;;9.73;6.50;;;;;;;16.92;nan;-24288.63;5014336;28;20326;-75
2022/04/23 04:44:40;;;;;;;10.52;5.88;;;;;;;17.29;nan;-24298.81;5015285;28;20187;-76
2022/04/23 04:47:06;;;;;;;7.68;5.75;;;;;;;16.81;nan;-24285.53;5015290;28;20168;-75
2022/04/23 04:49:31;;;;;;;11.30;5.70;;;;;;;17.16;nan;-24295.31;5015037;28;20211;-76
2022/04/23 04:51:57;;;;;;;9.05;6.28;;;;;;;16.54;nan;-24278.13;5014704;28;20254;-77
2022/04/23 04:54:23;;;;;;;10.85;6.28;;;;;;;15.32;nan;-24244.41;5014510;28;20323;-75
2022/04/23 04:56:52;;;;;;;13.50;6.22;;;;;;;15.34;nan;-24244.97;5015182;28;20173;-75
2022/04/23 04:59:18;;;;;;;10.32;6.47;;;;;;;14.66;nan;-24225.91;5013701;28;20236;-77
2022/04/23 05:01:44;;;;;;;9.35;6.82;;;;;;;14.27;nan;-24215.13;5014717;28;20266;-77
2022/04/23 05:04:09;;;;;;;10.45;6.47;;;;;;;14.19;nan;-24212.88;5014842;28;20179;-75
2022/04/23 05:06:36;;;;;;;11.30;7.00;;;;;;;14.79;nan;-24229.56;5014774;28;20607;-75
2022/04/23 05:09:02;;;;;;;12.70;7.57;;;;;;;14.16;nan;-24212.31;5013308;28;20604;-75
2022/04/23 05:11:27;;;;;;;11.93;8.00;;;;;;;13.19;nan;-24185.34;5015439;28;20187;-75
2022/04/23 05:13:53;;;;;;;13.75;9.55;;;;;;;12.51;nan;-24166.22;5014571;28;20172;-74
2022/04/23 05:16:18;;;;;;;16.50;10.05;;;;;;;12.39;nan;-24163.13;5014593;28;20172;-73
2022/04/23 05:18:44;;;;;;;15.27;9.65;;;;;;;13.04;nan;-24181.13;5014367;28;20556;-73
2022/04/23 05:21:11;;;;;;;18.27;9.40;;;;;;;12.57;nan;-24168.06;5014414;28;20571;-75
2022/04/23 05:23:36;;;;;;;21.02;12.55;;;;;;;12.94;nan;-24178.31;5014194;28;20183;-77
2022/04/23 05:26:03;;;;;;;16.58;10.98;;;;;;;13.07;nan;-24181.97;5014604;28;20195;-76
2022/04/23 05:28:29;;;;;;;18.33;11.05;;;;;;;13.07;nan;-24181.97;5013204;28;20551;-75
2022/04/23 05:30:54;;;;;;;12.10;9.18;;;;;;;13.07;nan;-24181.84;5014436;28;20557;-76
2022/04/23 05:33:19;;;;;;;14.45;8.85;;;;;;;13.06;nan;-24181.56;5014151;28;20164;-76
2022/04/23 05:35:45;;;;;;;12.88;8.73;;;;;;;13.50;nan;-24193.91;5013967;28;20180;-74
2022/04/23 05:38:10;;;;;;;12.15;7.78;;;;;;;14.29;nan;-24215.81;5013994;28;20287;-76
2022/04/23 05:40:36;;;;;;;11.30;7.90;;;;;;;14.48;nan;-24221.00;5013971;28;20206;-74
2022/04/23 05:43:01;;;;;;;12.70;8.02;;;;;;;14.69;nan;-24226.91;5014140;28;20267;-77
2022/04/23 05:45:28;;;;;;;13.00;7.95;;;;;;;15.00;nan;-24235.59;5012067;28;20203;-75
2022/04/23 05:47:54;;;;;;;8.52;6.10;;;;;;;15.05;nan;-24236.84;5013956;28;20179;-75
2022/04/23 05:50:20;;;;;;;9.25;6.18;;;;;;;15.02;nan;-24236.00;5013722;28;20179;-77
2022/04/23 05:52:46;;;;;;;8.25;6.30;;;;;;;15.22;nan;-24241.47;5014038;28;20254;-77
2022/04/23 05:55:11;;;;;;;8.38;5.55;;;;;;;15.25;nan;-24242.31;5013209;28;20184;-77
2022/04/23 05:57:37;;;;;;;7.38;5.43;;;;;;;15.42;nan;-24247.06;5013762;28;20270;-75
2022/04/23 06:00:04;;;;;;;9.23;5.00;;;;;;;16.27;nan;-24270.72;5013612;28;20199;-77
2022/04/23 06:02:31;;;;;;;7.93;5.05;;;;;;;16.67;nan;-24281.63;5013502;28;20270;-75
2022/04/23 06:04:57;;;;;;;7.47;5.07;;;;;;;16.86;nan;-24286.78;5013392;28;20624;-76
2022/04/23 06:07:22;;;;;;;5.95;4.43;;;;;;;17.39;nan;-24301.59;5013329;28;20720;-75
2022/04/23 06:09:48;;;;;;;5.53;4.32;;;;;;;17.20;nan;-24296.28;5013741;28;20666;-76
2022/04/23 06:12:13;;;;;;;5.68;4.35;;;;;;;17.69;nan;-24309.69;5013731;28;20180;-75
2022/04/23 06:14:39;;;;;;;8.80;4.47;;;;;;;17.58;nan;-24306.75;5013370;28;20168;-76
2022/04/23 06:17:10;;;;;;;7.70;5.00;;;;;;;17.84;nan;-24313.88;5013437;28;20659;-77
2022/04/23 06:19:36;;;;;;;7.22;4.55;;;;;;;18.00;nan;-24318.34;5013240;28;20203;-76
2022/04/23 06:22:01;;;;;;;6.82;4.50;;;;;;;17.87;nan;-24314.72;5013246;28;20204;-76
2022/04/23 06:24:26;;;;;;;10.63;4.68;;;;;;;17.81;nan;-24313.19;5013340;28;20180;-77
2022/04/23 06:26:52;;;;;;;7.65;5.00;;;;;;;17.73;nan;-24310.94;5013338;28;20635;-76
2022/04/23 06:29:17;;;;;;;9.95;4.93;;;;;;;17.85;nan;-24314.16;5013325;28;20175;-74
2022/04/23 06:31:43;;;;;;;6.60;4.97;;;;;;;17.94;nan;-24316.66;5013054;28;20183;-74
2022/04/23 06:34:09;;;;;;;9.55;5.00;;;;;;;17.75;nan;-24311.38;5012947;28;20179;-74
2022/04/23 06:36:36;;;;;;;6.28;5.18;;;;;;;18.15;nan;-24322.53;5012995;28;20176;-74
2022/04/23 06:39:02;;;;;;;8.65;4.50;;;;;;;17.83;nan;-24313.59;5012606;28;20167;-76
2022/04/23 06:41:28;;;;;;;6.55;4.90;;;;;;;17.90;nan;-24315.69;5028200;28;20614;-76
2022/04/23 06:43:53;;;;;;;11.07;4.90;;;;;;;17.83;nan;-24313.59;5028102;28;20259;-75
2022/04/23 06:46:19;;;;;;;6.50;5.20;;;;;;;17.44;nan;-24303.00;5012764;28;20168;-76
2022/04/23 06:48:44;;;;;;;6.97;5.00;;;;;;;17.53;nan;-24305.50;5012717;28;20669;-76
2022/04/23 06:51:09;;;;;;;9.40;5.00;;;;;;;17.62;nan;-24307.88;5013630;28;20188;-77
2022/04/23 06:53:36;;;;;;;7.55;4.95;;;;;;;17.52;nan;-24305.09;5012474;28;20255;-75
2022/04/23 06:56:03;;;;;;;7.68;5.45;;;;;;;17.36;nan;-24300.75;5012677;28;20569;-77
2022/04/23 06:58:28;;;;;;;7.93;4.90;;;;;;;17.60;nan;-24307.47;5011341;28;20249;-74
2022/04/23 07:00:54;;;;;;;7.25;4.90;;;;;;;17.44;nan;-24302.84;5011133;28;20282;-75
2022/04/23 07:03:20;;;;;;;9.88;5.25;;;;;;;17.53;nan;-24305.34;5012516;28;20187;-75
2022/04/23 07:05:46;;;;;;;8.48;6.13;;;;;;;17.73;nan;-24310.94;5011014;28;20183;-78
2022/04/23 07:08:12;;;;;;;6.47;5.25;;;;;;;17.81;nan;-24313.19;5012834;28;20168;-76
2022/04/23 07:10:38;;;;;;;8.13;5.30;;;;;;;17.46;nan;-24303.56;5011406;28;20177;-77
2022/04/23 07:13:04;;;;;;;7.68;5.32;;;;;;;18.08;nan;-24320.72;5012455;28;20671;-77
2022/04/23 07:15:30;;;;;;;12.40;5.40;;;;;;;17.81;nan;-24313.19;5012424;28;20171;-77
2022/04/23 07:17:56;;;;;;;8.13;6.53;;;;;;;17.44;nan;-24303.00;5011017;28;20184;-76
2022/04/23 07:20:22;;;;;;;7.68;5.65;;;;;;;17.84;nan;-24313.88;5011587;28;20262;-76
2022/04/23 07:25:36;;;;;;;10.70;7.50;;;;;;;17.99;nan;-24318.19;5012179;28;20261;-76
2022/04/23 07:28:03;;;;;;;9.65;6.55;;;;;;;18.63;nan;-24335.63;5012241;28;20184;-77
2022/04/23 07:30:29;;;;;;;10.27;6.40;;;;;;;18.63;nan;-24335.63;5012142;28;20183;-77
2022/04/23 07:32:56;;;;;;;8.57;5.75;;;;;;;18.76;nan;-24339.25;5011077;28;20667;-76
2022/04/23 07:38:14;;;;;;;9.07;5.93;;;;;;;18.77;nan;-24339.66;5012444;28;20646;-76
2022/04/23 07:40:40;;;;;;;9.88;5.93;;;;;;;18.69;nan;-24337.44;5012021;28;20192;-75
2022/04/23 07:43:14;;;;;;;12.30;7.18;;;;;;;19.00;nan;-24345.91;5011744;28;20642;-75
2022/04/23 07:45:41;;;;;;;10.43;6.18;;;;;;;18.81;nan;-24340.78;5012588;28;20176;-75
2022/04/23 07:48:09;;;;;;;7.85;5.82;;;;;;;18.58;nan;-24334.22;5012036;28;20198;-75
2022/04/23 07:50:35;;;;;;;7.90;5.70;;;;;;;18.12;nan;-24321.69;5011945;28;20614;-77
2022/04/23 07:53:01;;;;;;;7.55;5.13;;;;;;;18.26;nan;-24325.44;5011893;28;20255;-76
2022/04/23 07:55:29;;;;;;;6.18;5.07;;;;;;;18.66;nan;-24336.44;5010732;28;20279;-76
2022/04/23 07:57:57;;;;;;;8.98;5.60;;;;;;;18.45;nan;-24330.88;5012096;28;20172;-75
2022/04/23 08:00:23;;;;;;;7.38;5.05;;;;;;;18.92;nan;-24343.69;5010594;28;20175;-76
2022/04/23 08:02:48;;;;;;;7.15;5.93;;;;;;;18.94;nan;-24344.25;5011042;28;20705;-76
2022/04/23 08:05:13;;;;;;;8.45;5.28;;;;;;;18.77;nan;-24339.66;5012493;28;20179;-76
2022/04/23 08:07:39;;;;;;;8.45;5.03;;;;;;;18.52;nan;-24332.81;5013045;28;20184;-75
2022/04/23 08:10:06;;;;;;;6.50;5.20;;;;;;;18.79;nan;-24340.22;5015707;28;20222;-75
2022/04/23 08:12:35;;;;;;;8.88;5.57;;;;;;;18.88;nan;-24342.56;5016316;28;20638;-77
2022/04/23 08:15:00;;;;;;;7.68;5.38;;;;;;;19.16;nan;-24350.38;5016256;28;20191;-76
2022/04/23 08:17:26;;;;;;;8.27;5.97;;;;;;;18.80;nan;-24340.34;5022259;28;20169;-75
2022/04/23 08:19:51;;;;;;;6.28;5.00;;;;;;;19.09;nan;-24348.44;5021816;28;20184;-75
2022/04/23 08:22:17;;;;;;;8.13;5.55;;;;;;;19.31;nan;-24354.41;5023302;28;20199;-75
2022/04/23 08:24:42;;;;;;;8.88;5.35;;;;;;;19.37;nan;-24356.22;5027169;28;20211;-76
2022/04/23 08:27:07;;;;;;;9.93;5.18;;;;;;;19.19;nan;-24351.06;5029708;28;20206;-77
2022/04/23 08:32:17;;;;;;;8.15;5.30;;;;;;;19.75;nan;-24366.50;5015467;28;20175;-75
2022/04/23 08:34:42;;;;;;;8.85;5.55;;;;;;;19.91;nan;-24370.81;5015860;28;20188;-76
2022/04/23 08:37:07;;;;;;;9.68;5.32;;;;;;;19.84;nan;-24369.16;5015170;28;20172;-76
2022/04/23 08:39:33;;;;;;;7.38;5.22;;;;;;;19.89;nan;-24370.41;5015635;28;20165;-75
2022/04/23 08:41:59;;;;;;;6.63;5.30;;;;;;;20.03;nan;-24374.28;5015269;28;20204;-76
2022/04/23 08:44:25;;;;;;;6.97;5.28;;;;;;;19.53;nan;-24360.38;5015280;28;20175;-77
2022/04/23 08:46:53;;;;;;;10.48;5.88;;;;;;;20.24;nan;-24380.13;5015136;28;20192;-77
2022/04/23 08:49:19;;;;;;;7.70;5.28;;;;;;;20.23;nan;-24379.72;5014984;28;20278;-76
2022/04/23 08:51:51;;;;;;;9.00;5.43;;;;;;;20.51;nan;-24387.50;5014980;28;20624;-76
2022/04/23 08:54:17;;;;;;;5.95;5.07;;;;;;;20.46;nan;-24386.09;5015339;28;20699;-76
2022/04/23 08:56:45;;;;;;;8.98;5.45;;;;;;;20.12;nan;-24376.66;5014944;28;20184;-76
2022/04/23 08:59:17;;;;;;;9.13;5.20;;;;;;;19.98;nan;-24372.91;5015061;28;20258;-75
2022/04/23 09:01:44;;;;;;;6.18;4.72;;;;;;;19.80;nan;-24367.91;5014853;28;20192;-76
2022/04/23 09:04:11;;;;;;;7.18;4.32;;;;;;;20.11;nan;-24376.50;5014701;28;20290;-75
2022/04/23 09:06:42;;;;;;;7.75;4.78;;;;;;;19.89;nan;-24370.41;5014905;28;20178;-76
2022/04/23 09:09:10;;;;;;;9.73;5.03;;;;;;;20.19;nan;-24378.75;5014905;28;20164;-75
2022/04/23 09:11:37;;;;;;;6.82;4.55;;;;;;;19.88;nan;-24369.97;5014467;28;20255;-77
2022/04/23 09:14:04;;;;;;;5.20;4.22;;;;;;;19.96;nan;-24372.34;5014428;28;20180;-76
2022/04/23 09:24:48;;;;;;;10.13;4.80;;;;;;;20.68;nan;-24392.06;5014796;28;20184;-76
2022/04/23 09:27:14;;;;;;;6.20;4.32;;;;;;;20.54;nan;-24388.19;5014251;28;20249;-77
2022/04/23 09:29:40;;;;;;;7.05;4.70;;;;;;;20.71;nan;-24393.03;5014369;28;20168;-76
2022/04/23 09:32:14;;;;;;;6.18;4.63;;;;;;;20.50;nan;-24387.22;5014659;28;20175;-76
2022/04/23 09:34:41;;;;;;;7.93;4.13;;;;;;;20.70;nan;-24392.63;5014108;28;20623;-77
2022/04/23 09:37:08;;;;;;;9.80;4.70;;;;;;;21.10;nan;-24403.72;5014220;28;20168;-76
2022/04/23 09:39:35;;;;;;;7.10;4.25;;;;;;;21.31;nan;-24409.28;5014091;28;20179;-77
2022/04/23 09:42:14;;;;;;;7.60;4.22;;;;;;;21.11;nan;-24404.00;5013935;28;20605;-76
2022/04/23 09:44:40;;;;;;;7.57;4.50;;;;;;;20.76;nan;-24394.16;5014254;28;20168;-76
2022/04/23 09:47:06;;;;;;;5.65;3.90;;;;;;;21.33;nan;-24409.97;5013938;28;20250;-75
2022/04/23 09:49:31;;;;;;;7.43;3.95;;;;;;;21.37;nan;-24410.94;5013915;28;20262;-76
2022/04/23 09:52:08;;;;;;;4.63;3.60;;;;;;;21.73;nan;-24420.78;5014126;28;20576;-76
2022/04/23 09:54:35;;;;;;;6.68;4.10;;;;;;;21.88;nan;-24425.06;5014722;28;20302;-75
2022/04/23 09:57:01;;;;;;;6.35;3.85;;;;;;;22.35;nan;-24437.78;5013877;28;20176;-76
2022/04/23 09:59:27;;;;;;;5.30;3.70;;;;;;;22.16;nan;-24432.53;5013830;28;20172;-77
2022/04/23 10:01:54;;;;;;;6.57;3.83;;;;;;;22.42;nan;-24439.88;5013844;28;20297;-75
2022/04/23 10:04:50;;;;;;;4.60;3.78;;;;;;;22.42;nan;-24439.75;5013494;28;20702;-75
2022/04/23 10:07:17;;;;;;;7.18;3.90;;;;;;;22.42;nan;-24439.88;5013816;28;20659;-78
2022/04/23 10:09:45;;;;;;;7.78;3.85;;;;;;;22.17;nan;-24432.81;5013594;28;20200;-76
2022/04/23 10:12:16;;;;;;;5.97;3.60;;;;;;;22.22;nan;-24434.19;5012245;28;20647;-76
2022/04/23 10:14:56;;;;;;;5.93;3.28;;;;;;;22.58;nan;-24444.03;5013182;28;20572;-77
2022/04/23 10:17:24;;;;;;;4.97;3.63;;;;;;;22.42;nan;-24439.75;5013963;28;20221;-77
2022/04/23 10:19:49;;;;;;;7.15;3.58;;;;;;;22.48;nan;-24441.53;5013054;28;20664;-76
2022/04/23 10:22:29;;;;;;;8.93;3.95;;;;;;;22.80;nan;-24450.25;5013333;28;20214;-77
2022/04/23 10:25:45;;;;;;;5.68;3.15;;;;;;;23.08;nan;-24457.84;5013543;28;20226;-76
2022/04/23 10:28:11;;;;;;;5.20;3.15;;;;;;;22.74;nan;-24448.59;5030990;28;20206;-75
2022/04/23 10:30:36;;;;;;;5.35;2.90;;;;;;;22.83;nan;-24451.09;5030211;28;20254;-76
2022/04/23 10:33:25;;;;;;;5.13;3.08;;;;;;;23.03;nan;-24456.47;5020672;28;20196;-79
2022/04/23 10:36:09;;;;;;;5.45;3.00;;;;;;;22.78;nan;-24449.56;5013017;28;20168;-77
2022/04/23 10:38:42;;;;;;;5.63;3.08;;;;;;;22.83;nan;-24450.94;5013563;28;20627;-76
2022/04/23 10:41:10;;;;;;;4.53;3.20;;;;;;;23.45;nan;-24467.94;5013134;28;20192;-76
2022/04/23 10:43:35;;;;;;;5.43;3.30;;;;;;;23.59;nan;-24471.81;5011793;28;20188;-77
2022/04/23 10:46:04;;;;;;;7.15;2.97;;;;;;;23.48;nan;-24468.78;5012950;28;20183;-77
2022/04/23 10:48:30;;;;;;;4.68;3.10;;;;;;;23.63;nan;-24472.91;5011527;28;20557;-75
2022/04/23 10:51:02;;;;;;;8.82;3.90;;;;;;;23.82;nan;-24478.00;5012835;28;20255;-75
2022/04/23 10:53:48;;;;;;;8.15;3.30;;;;;;;23.45;nan;-24467.78;5013051;28;20231;-75
2022/04/23 10:56:15;;;;;;;4.78;3.40;;;;;;;23.97;nan;-24482.16;5012746;28;20258;-75
2022/04/23 10:58:42;;;;;;;9.18;3.30;;;;;;;23.54;nan;-24470.41;5012671;28;20178;-77
2022/04/23 11:01:23;;;;;;;5.53;2.97;;;;;;;23.96;nan;-24481.88;5012287;28;20297;-75
2022/04/23 11:03:55;;;;;;;6.88;3.47;;;;;;;23.89;nan;-24479.94;5012615;28;20180;-75
2022/04/23 11:12:27;;;;;;;4.40;2.63;;;;;;;24.16;nan;-24487.41;5011859;28;20569;-76
2022/04/23 11:14:55;;;;;;;9.68;3.00;;;;;;;24.22;nan;-24488.91;5012775;28;20180;-76
2022/04/23 11:17:25;;;;;;;9.75;3.00;;;;;;;23.82;nan;-24477.88;5011634;28;20563;-76
2022/04/23 11:19:52;;;;;;;9.13;3.13;;;;;;;24.16;nan;-24487.25;5012359;28;20247;-77
2022/04/23 11:22:19;;;;;;;4.20;2.60;;;;;;;23.99;nan;-24482.72;5026561;28;20203;-76
2022/04/23 11:24:46;;;;;;;5.07;2.97;;;;;;;24.09;nan;-24485.31;5012591;28;20184;-76
2022/04/23 11:27:23;;;;;;;8.50;3.50;;;;;;;24.29;nan;-24490.84;5011404;28;20626;-76
2022/04/23 11:29:55;;;;;;;5.55;3.13;;;;;;;24.23;nan;-24489.19;5012170;28;20183;-75
2022/04/23 11:32:29;;;;;;;8.95;2.88;;;;;;;23.98;nan;-24482.44;5011571;28;20184;-76
2022/04/23 11:35:01;;;;;;;3.90;2.63;;;;;;;24.09;nan;-24485.31;5012422;28;20740;-76
2022/04/23 11:37:37;;;;;;;9.05;3.20;;;;;;;24.41;nan;-24494.00;5011455;28;20180;-75
2022/04/23 11:40:16;;;;;;;7.40;2.83;;;;;;;24.67;nan;-24501.03;5011500;28;20266;-76
2022/04/23 11:42:47;;;;;;;7.93;3.00;;;;;;;24.20;nan;-24488.38;5013023;28;20231;-75
2022/04/23 11:45:14;;;;;;;4.80;2.55;;;;;;;24.75;nan;-24503.25;5016100;28;20183;-75
2022/04/23 11:47:40;;;;;;;7.47;2.78;;;;;;;24.97;nan;-24509.44;5013428;28;20203;-76
2022/04/23 11:50:23;;;;;;;7.22;2.78;;;;;;;24.86;nan;-24506.41;5015775;28;20639;-76
2022/04/23 11:53:03;;;;;;;8.27;3.20;;;;;;;24.89;nan;-24507.25;5015858;28;20561;-77
2022/04/23 11:55:30;;;;;;;4.43;2.55;;;;;;;24.95;nan;-24508.75;5015621;28;20179;-76
2022/04/23 11:58:00;;;;;;;5.55;2.83;;;;;;;25.22;nan;-24516.06;5015793;28;20572;-75
2022/04/23 12:00:27;;;;;;;8.32;2.88;;;;;;;25.06;nan;-24511.78;5015960;28;20168;-75
2022/04/23 12:02:53;;;;;;;7.47;2.85;;;;;;;25.26;nan;-24517.16;5015873;28;20262;-75